sensor_id;sensor_type;location;lat;lon;timestamp;temperature;humidity
15357;DHT22;7778;48.792;9.260;2022-12-17T00:01:49;-3.70;99.90
15357;DHT22;7778;48.792;9.260;2022-12-17T00:04:53;-3.70;99.90
15357;DHT22;7778;48.792;9.260;2022-12-17T00:07:57;-3.80;99.90
15357;DHT22;7778;48.792;9.260;2022-12-17T00:11:02;-3.80;99.90
15357;DHT22;7778;48.792;9.260;2022-12-17T00:14:05;-3.90;99.90
15357;DHT22;7778;48.792;9.260;2022-12-17T00:17:09;-3.90;99.90
15357;DHT22;7778;48.792;9.260;2022-12-17T00:20:13;-3.90;99.90
15357;DHT22;7778;48.792;9.260;2022-12-17T00:23:16;-3.90;99.90
15357;DHT22;7778;48.792;9.260;2022-12-17T00:26:21;-4.00;99.90
15357;DHT22;7778;48.792;9.260;2022-12-17T00:29:25;-4.10;99.90
15357;DHT22;7778;48.792;9.260;2022-12-17T00:32:28;-4.10;99.90
15357;DHT22;7778;48.792;9.260;2022-12-17T00:35:32;-4.10;99.90
15357;DHT22;7778;48.792;9.260;2022-12-17T00:38:35;-4.20;99.90
15357;DHT22;7778;48.792;9.260;2022-12-17T00:41:40;-4.20;99.90
15357;DHT22;7778;48.792;9.260;2022-12-17T00:44:44;-4.20;99.90
15357;DHT22;7778;48.792;9.260;2022-12-17T00:48:02;-4.20;99.90
15357;DHT22;7778;48.792;9.260;2022-12-17T00:51:05;-4.20;99.90
15357;DHT22;7778;48.792;9.260;2022-12-17T00:54:09;-4.30;99.90
15357;DHT22;7778;48.792;9.260;2022-12-17T00:57:14;-4.30;99.90
15357;DHT22;7778;48.792;9.260;2022-12-17T01:00:18;-4.30;99.90
15357;DHT22;7778;48.792;9.260;2022-12-17T01:03:21;-4.30;99.90
15357;DHT22;7778;48.792;9.260;2022-12-17T01:06:24;-4.40;99.90
15357;DHT22;7778;48.792;9.260;2022-12-17T01:09:28;-4.40;99.90
15357;DHT22;7778;48.792;9.260;2022-12-17T01:12:33;-4.40;99.90
15357;DHT22;7778;48.792;9.260;2022-12-17T01:15:36;-4.40;99.90
15357;DHT22;7778;48.792;9.260;2022-12-17T01:18:40;-4.40;99.90
15357;DHT22;7778;48.792;9.260;2022-12-17T01:21:44;-4.40;99.90
15357;DHT22;7778;48.792;9.260;2022-12-17T01:24:48;-4.30;99.90
15357;DHT22;7778;48.792;9.260;2022-12-17T01:27:52;-4.40;99.90
15357;DHT22;7778;48.792;9.260;2022-12-17T01:30:56;-4.40;99.90
15357;DHT22;7778;48.792;9.260;2022-12-17T01:34:00;-4.30;99.90
15357;DHT22;7778;48.792;9.260;2022-12-17T01:37:03;-4.40;99.90
15357;DHT22;7778;48.792;9.260;2022-12-17T01:40:08;-4.40;99.90
15357;DHT22;7778;48.792;9.260;2022-12-17T01:43:32;-4.40;99.90
15357;DHT22;7778;48.792;9.260;2022-12-17T01:46:39;-4.60;99.90
15357;DHT22;7778;48.792;9.260;2022-12-17T01:49:43;-4.50;99.90
15357;DHT22;7778;48.792;9.260;2022-12-17T01:52:48;-4.50;99.90
15357;DHT22;7778;48.792;9.260;2022-12-17T01:55:55;-4.50;99.90
15357;DHT22;7778;48.792;9.260;2022-12-17T01:59:02;-4.50;99.90
15357;DHT22;7778;48.792;9.260;2022-12-17T02:02:07;-4.60;99.90
15357;DHT22;7778;48.792;9.260;2022-12-17T02:05:11;-4.60;99.90
15357;DHT22;7778;48.792;9.260;2022-12-17T02:08:19;-4.70;99.90
15357;DHT22;7778;48.792;9.260;2022-12-17T02:11:30;-4.60;99.90
15357;DHT22;7778;48.792;9.260;2022-12-17T02:14:41;-4.60;99.90
15357;DHT22;7778;48.792;9.260;2022-12-17T02:17:52;-4.60;99.90
15357;DHT22;7778;48.792;9.260;2022-12-17T02:20:58;-4.70;99.90
15357;DHT22;7778;48.792;9.260;2022-12-17T02:24:08;-4.60;99.90
15357;DHT22;7778;48.792;9.260;2022-12-17T02:27:15;-4.60;99.90
15357;DHT22;7778;48.792;9.260;2022-12-17T02:30:19;-4.60;99.90
15357;DHT22;7778;48.792;9.260;2022-12-17T02:33:22;-4.50;99.90
15357;DHT22;7778;48.792;9.260;2022-12-17T02:36:26;-4.40;99.90
15357;DHT22;7778;48.792;9.260;2022-12-17T02:39:30;-4.50;99.90
15357;DHT22;7778;48.792;9.260;2022-12-17T02:42:35;-4.50;99.90
15357;DHT22;7778;48.792;9.260;2022-12-17T02:45:39;-4.50;99.90
15357;DHT22;7778;48.792;9.260;2022-12-17T02:48:42;-4.50;99.90
15357;DHT22;7778;48.792;9.260;2022-12-17T02:51:46;-4.50;99.90
15357;DHT22;7778;48.792;9.260;2022-12-17T02:54:49;-4.50;99.90
15357;DHT22;7778;48.792;9.260;2022-12-17T02:57:54;-4.40;99.90
15357;DHT22;7778;48.792;9.260;2022-12-17T03:00:57;-4.30;99.90
15357;DHT22;7778;48.792;9.260;2022-12-17T03:04:01;-4.30;99.90
15357;DHT22;7778;48.792;9.260;2022-12-17T03:07:04;-4.20;99.90
15357;DHT22;7778;48.792;9.260;2022-12-17T03:10:08;-4.10;99.90
15357;DHT22;7778;48.792;9.260;2022-12-17T03:13:22;-3.90;99.90
15357;DHT22;7778;48.792;9.260;2022-12-17T03:16:25;-4.00;99.90
15357;DHT22;7778;48.792;9.260;2022-12-17T03:19:25;-4.00;99.90
15357;DHT22;7778;48.792;9.260;2022-12-17T03:22:28;-4.00;99.90
15357;DHT22;7778;48.792;9.260;2022-12-17T03:25:32;-4.10;99.90
15357;DHT22;7778;48.792;9.260;2022-12-17T03:28:37;-4.10;99.90
15357;DHT22;7778;48.792;9.260;2022-12-17T03:31:41;-4.00;99.90
15357;DHT22;7778;48.792;9.260;2022-12-17T03:34:44;-4.00;99.90
15357;DHT22;7778;48.792;9.260;2022-12-17T03:37:55;-4.00;99.90
15357;DHT22;7778;48.792;9.260;2022-12-17T03:40:59;-4.00;99.90
15357;DHT22;7778;48.792;9.260;2022-12-17T03:44:03;-4.00;99.90
15357;DHT22;7778;48.792;9.260;2022-12-17T03:47:07;-3.90;99.90
15357;DHT22;7778;48.792;9.260;2022-12-17T03:50:10;-3.90;99.90
15357;DHT22;7778;48.792;9.260;2022-12-17T03:53:14;-3.90;99.90
15357;DHT22;7778;48.792;9.260;2022-12-17T03:56:17;-3.80;99.90
15357;DHT22;7778;48.792;9.260;2022-12-17T03:59:22;-3.50;99.90
15357;DHT22;7778;48.792;9.260;2022-12-17T04:02:26;-3.60;99.90
15357;DHT22;7778;48.792;9.260;2022-12-17T04:05:30;-3.60;99.90
15357;DHT22;7778;48.792;9.260;2022-12-17T04:08:33;-3.50;99.90
15357;DHT22;7778;48.792;9.260;2022-12-17T04:11:37;-3.40;99.90
15357;DHT22;7778;48.792;9.260;2022-12-17T04:14:42;-3.40;99.90
15357;DHT22;7778;48.792;9.260;2022-12-17T04:17:45;-3.30;99.90
15357;DHT22;7778;48.792;9.260;2022-12-17T04:20:49;-3.40;99.90
15357;DHT22;7778;48.792;9.260;2022-12-17T04:23:53;-3.20;99.90
15357;DHT22;7778;48.792;9.260;2022-12-17T04:26:56;-3.30;99.90
15357;DHT22;7778;48.792;9.260;2022-12-17T04:30:01;-3.30;99.90
15357;DHT22;7778;48.792;9.260;2022-12-17T04:33:05;-3.40;99.90
15357;DHT22;7778;48.792;9.260;2022-12-17T04:36:08;-3.40;99.90
15357;DHT22;7778;48.792;9.260;2022-12-17T04:39:12;-3.40;99.90
15357;DHT22;7778;48.792;9.260;2022-12-17T04:42:15;-3.60;99.90
15357;DHT22;7778;48.792;9.260;2022-12-17T04:45:20;-3.70;99.90
15357;DHT22;7778;48.792;9.260;2022-12-17T04:48:24;-3.80;99.90
15357;DHT22;7778;48.792;9.260;2022-12-17T04:51:27;-3.80;99.90
15357;DHT22;7778;48.792;9.260;2022-12-17T04:54:31;-3.60;99.90
15357;DHT22;7778;48.792;9.260;2022-12-17T04:57:35;-3.60;99.90
15357;DHT22;7778;48.792;9.260;2022-12-17T05:00:39;-3.60;99.90
15357;DHT22;7778;48.792;9.260;2022-12-17T05:03:43;-3.70;99.90
15357;DHT22;7778;48.792;9.260;2022-12-17T05:06:46;-3.70;99.90
15357;DHT22;7778;48.792;9.260;2022-12-17T05:09:50;-3.70;99.90
15357;DHT22;7778;48.792;9.260;2022-12-17T05:12:57;-3.80;99.90
15357;DHT22;7778;48.792;9.260;2022-12-17T05:16:02;-3.90;99.90
15357;DHT22;7778;48.792;9.260;2022-12-17T05:19:05;-4.00;99.90
15357;DHT22;7778;48.792;9.260;2022-12-17T05:22:09;-4.00;99.90
15357;DHT22;7778;48.792;9.260;2022-12-17T05:25:13;-4.10;99.90
15357;DHT22;7778;48.792;9.260;2022-12-17T05:28:17;-4.10;99.90
15357;DHT22;7778;48.792;9.260;2022-12-17T05:31:22;-4.30;99.90
15357;DHT22;7778;48.792;9.260;2022-12-17T05:34:25;-4.20;99.90
15357;DHT22;7778;48.792;9.260;2022-12-17T05:37:29;-4.20;99.90
15357;DHT22;7778;48.792;9.260;2022-12-17T05:40:33;-4.30;99.90
15357;DHT22;7778;48.792;9.260;2022-12-17T05:43:37;-4.30;99.90
15357;DHT22;7778;48.792;9.260;2022-12-17T05:46:41;-4.20;99.90
15357;DHT22;7778;48.792;9.260;2022-12-17T05:49:45;-4.10;99.90
15357;DHT22;7778;48.792;9.260;2022-12-17T05:53:03;-4.20;99.90
15357;DHT22;7778;48.792;9.260;2022-12-17T05:56:07;-4.10;99.90
15357;DHT22;7778;48.792;9.260;2022-12-17T05:59:10;-4.00;99.90
15357;DHT22;7778;48.792;9.260;2022-12-17T06:02:14;-3.90;99.90
15357;DHT22;7778;48.792;9.260;2022-12-17T06:05:18;-4.10;99.90
15357;DHT22;7778;48.792;9.260;2022-12-17T06:08:21;-3.90;99.90
15357;DHT22;7778;48.792;9.260;2022-12-17T06:11:25;-3.80;99.90
15357;DHT22;7778;48.792;9.260;2022-12-17T06:14:29;-3.50;99.90
15357;DHT22;7778;48.792;9.260;2022-12-17T06:17:33;-3.70;99.90
15357;DHT22;7778;48.792;9.260;2022-12-17T06:20:37;-3.70;99.90
15357;DHT22;7778;48.792;9.260;2022-12-17T06:23:40;-4.00;99.90
15357;DHT22;7778;48.792;9.260;2022-12-17T06:26:44;-3.90;99.90
15357;DHT22;7778;48.792;9.260;2022-12-17T06:29:48;-3.90;99.90
15357;DHT22;7778;48.792;9.260;2022-12-17T06:33:02;-4.00;99.90
15357;DHT22;7778;48.792;9.260;2022-12-17T06:36:06;-4.00;99.90
15357;DHT22;7778;48.792;9.260;2022-12-17T06:39:10;-4.00;99.90
15357;DHT22;7778;48.792;9.260;2022-12-17T06:42:14;-4.10;99.90
15357;DHT22;7778;48.792;9.260;2022-12-17T06:45:17;-4.10;99.90
15357;DHT22;7778;48.792;9.260;2022-12-17T06:48:22;-4.20;99.90
15357;DHT22;7778;48.792;9.260;2022-12-17T06:51:26;-4.20;99.90
15357;DHT22;7778;48.792;9.260;2022-12-17T06:54:29;-4.10;99.90
15357;DHT22;7778;48.792;9.260;2022-12-17T06:57:33;-3.90;99.90
15357;DHT22;7778;48.792;9.260;2022-12-17T07:00:36;-3.90;99.90
15357;DHT22;7778;48.792;9.260;2022-12-17T07:03:41;-3.90;99.90
15357;DHT22;7778;48.792;9.260;2022-12-17T07:06:44;-4.00;99.90
15357;DHT22;7778;48.792;9.260;2022-12-17T07:09:48;-4.00;99.90
15357;DHT22;7778;48.792;9.260;2022-12-17T07:13:06;-3.90;99.90
15357;DHT22;7778;48.792;9.260;2022-12-17T07:16:10;-3.90;99.90
15357;DHT22;7778;48.792;9.260;2022-12-17T07:19:15;-4.10;99.90
15357;DHT22;7778;48.792;9.260;2022-12-17T07:22:19;-4.20;99.90
15357;DHT22;7778;48.792;9.260;2022-12-17T07:25:22;-4.30;99.90
15357;DHT22;7778;48.792;9.260;2022-12-17T07:28:26;-4.20;99.90
15357;DHT22;7778;48.792;9.260;2022-12-17T07:31:30;-4.10;99.90
15357;DHT22;7778;48.792;9.260;2022-12-17T07:34:34;-4.50;99.90
15357;DHT22;7778;48.792;9.260;2022-12-17T07:37:38;-4.40;99.90
15357;DHT22;7778;48.792;9.260;2022-12-17T07:40:42;-4.20;99.90
15357;DHT22;7778;48.792;9.260;2022-12-17T07:43:47;-4.30;99.90
15357;DHT22;7778;48.792;9.260;2022-12-17T07:46:51;-4.30;99.90
15357;DHT22;7778;48.792;9.260;2022-12-17T07:49:56;-4.10;99.90
15357;DHT22;7778;48.792;9.260;2022-12-17T07:52:59;-4.00;99.90
15357;DHT22;7778;48.792;9.260;2022-12-17T07:56:04;-4.10;99.90
15357;DHT22;7778;48.792;9.260;2022-12-17T07:59:08;-4.00;99.90
15357;DHT22;7778;48.792;9.260;2022-12-17T08:02:11;-4.00;99.90
15357;DHT22;7778;48.792;9.260;2022-12-17T08:05:16;-4.20;99.90
15357;DHT22;7778;48.792;9.260;2022-12-17T08:08:20;-4.50;99.90
15357;DHT22;7778;48.792;9.260;2022-12-17T08:11:24;-4.30;99.90
15357;DHT22;7778;48.792;9.260;2022-12-17T08:14:27;-4.10;99.90
15357;DHT22;7778;48.792;9.260;2022-12-17T08:17:31;-4.10;99.90
15357;DHT22;7778;48.792;9.260;2022-12-17T08:20:36;-4.10;99.90
15357;DHT22;7778;48.792;9.260;2022-12-17T08:23:39;-3.90;99.90
15357;DHT22;7778;48.792;9.260;2022-12-17T08:26:43;-4.10;99.90
15357;DHT22;7778;48.792;9.260;2022-12-17T08:29:46;-4.10;99.90
15357;DHT22;7778;48.792;9.260;2022-12-17T08:32:50;-3.90;99.90
15357;DHT22;7778;48.792;9.260;2022-12-17T08:35:56;-3.70;99.90
15357;DHT22;7778;48.792;9.260;2022-12-17T08:39:00;-3.50;99.90
15357;DHT22;7778;48.792;9.260;2022-12-17T08:42:03;-3.50;99.90
15357;DHT22;7778;48.792;9.260;2022-12-17T08:45:07;-4.00;99.90
15357;DHT22;7778;48.792;9.260;2022-12-17T08:48:11;-3.90;99.90
15357;DHT22;7778;48.792;9.260;2022-12-17T08:51:16;-3.70;99.90
15357;DHT22;7778;48.792;9.260;2022-12-17T08:54:19;-3.50;99.90
15357;DHT22;7778;48.792;9.260;2022-12-17T08:57:23;-3.40;99.90
15357;DHT22;7778;48.792;9.260;2022-12-17T09:00:27;-3.40;99.90
15357;DHT22;7778;48.792;9.260;2022-12-17T09:03:30;-3.60;99.90
15357;DHT22;7778;48.792;9.260;2022-12-17T09:06:35;-3.90;99.90
15357;DHT22;7778;48.792;9.260;2022-12-17T09:09:39;-3.90;99.90
15357;DHT22;7778;48.792;9.260;2022-12-17T09:12:42;-3.90;99.90
15357;DHT22;7778;48.792;9.260;2022-12-17T09:15:51;-3.90;99.90
15357;DHT22;7778;48.792;9.260;2022-12-17T09:18:54;-3.80;99.90
15357;DHT22;7778;48.792;9.260;2022-12-17T09:21:59;-3.80;99.90
15357;DHT22;7778;48.792;9.260;2022-12-17T09:25:04;-4.00;99.90
15357;DHT22;7778;48.792;9.260;2022-12-17T09:28:07;-4.20;99.90
15357;DHT22;7778;48.792;9.260;2022-12-17T09:31:11;-4.20;99.90
15357;DHT22;7778;48.792;9.260;2022-12-17T09:34:15;-4.10;99.90
15357;DHT22;7778;48.792;9.260;2022-12-17T09:37:20;-4.00;99.90
15357;DHT22;7778;48.792;9.260;2022-12-17T09:40:23;-4.00;99.90
15357;DHT22;7778;48.792;9.260;2022-12-17T09:43:32;-4.00;99.90
15357;DHT22;7778;48.792;9.260;2022-12-17T09:46:41;-3.90;99.90
15357;DHT22;7778;48.792;9.260;2022-12-17T09:49:49;-3.80;99.90
15357;DHT22;7778;48.792;9.260;2022-12-17T09:52:58;-3.60;99.90
15357;DHT22;7778;48.792;9.260;2022-12-17T09:56:03;-3.40;99.90
15357;DHT22;7778;48.792;9.260;2022-12-17T09:59:08;-3.40;99.90
15357;DHT22;7778;48.792;9.260;2022-12-17T10:02:30;-3.30;99.90
15357;DHT22;7778;48.792;9.260;2022-12-17T10:05:33;-3.10;99.90
15357;DHT22;7778;48.792;9.260;2022-12-17T10:08:38;-2.90;99.90
15357;DHT22;7778;48.792;9.260;2022-12-17T10:11:42;-2.90;99.90
15357;DHT22;7778;48.792;9.260;2022-12-17T10:14:46;-2.90;99.90
15357;DHT22;7778;48.792;9.260;2022-12-17T10:17:49;-3.10;99.90
15357;DHT22;7778;48.792;9.260;2022-12-17T10:20:57;-3.30;99.90
15357;DHT22;7778;48.792;9.260;2022-12-17T10:24:07;-3.20;99.90
15357;DHT22;7778;48.792;9.260;2022-12-17T10:27:17;-3.10;99.90
15357;DHT22;7778;48.792;9.260;2022-12-17T10:30:22;-2.90;99.90
15357;DHT22;7778;48.792;9.260;2022-12-17T10:33:25;-2.90;99.90
15357;DHT22;7778;48.792;9.260;2022-12-17T10:36:29;-2.80;99.90
15357;DHT22;7778;48.792;9.260;2022-12-17T10:39:34;-2.70;99.90
15357;DHT22;7778;48.792;9.260;2022-12-17T10:42:38;-2.60;99.90
15357;DHT22;7778;48.792;9.260;2022-12-17T10:45:52;-2.60;99.90
15357;DHT22;7778;48.792;9.260;2022-12-17T10:49:09;-2.60;99.90
15357;DHT22;7778;48.792;9.260;2022-12-17T10:52:25;-2.50;99.90
15357;DHT22;7778;48.792;9.260;2022-12-17T10:55:33;-2.40;99.90
15357;DHT22;7778;48.792;9.260;2022-12-17T10:58:42;-2.30;99.90
15357;DHT22;7778;48.792;9.260;2022-12-17T11:01:47;-2.30;99.90
15357;DHT22;7778;48.792;9.260;2022-12-17T11:05:12;-2.90;99.90
15357;DHT22;7778;48.792;9.260;2022-12-17T11:08:18;-2.60;99.90
15357;DHT22;7778;48.792;9.260;2022-12-17T11:11:23;-2.90;99.90
15357;DHT22;7778;48.792;9.260;2022-12-17T11:14:28;-2.70;99.90
15357;DHT22;7778;48.792;9.260;2022-12-17T11:17:31;-2.90;99.90
15357;DHT22;7778;48.792;9.260;2022-12-17T11:20:43;-2.80;99.90
15357;DHT22;7778;48.792;9.260;2022-12-17T11:23:50;-2.60;99.90
15357;DHT22;7778;48.792;9.260;2022-12-17T11:26:55;-2.40;99.90
15357;DHT22;7778;48.792;9.260;2022-12-17T11:30:01;-2.30;99.90
15357;DHT22;7778;48.792;9.260;2022-12-17T11:33:11;-2.30;99.90
15357;DHT22;7778;48.792;9.260;2022-12-17T11:36:23;-2.30;99.90
15357;DHT22;7778;48.792;9.260;2022-12-17T11:39:35;-2.60;99.90
15357;DHT22;7778;48.792;9.260;2022-12-17T11:42:52;-2.60;99.90
15357;DHT22;7778;48.792;9.260;2022-12-17T11:46:12;-2.60;99.90
15357;DHT22;7778;48.792;9.260;2022-12-17T11:49:32;-2.40;99.90
15357;DHT22;7778;48.792;9.260;2022-12-17T11:52:46;-2.20;99.90
15357;DHT22;7778;48.792;9.260;2022-12-17T11:55:56;-2.10;99.90
15357;DHT22;7778;48.792;9.260;2022-12-17T11:59:10;-2.30;99.90
15357;DHT22;7778;48.792;9.260;2022-12-17T12:02:40;-2.30;99.90
15357;DHT22;7778;48.792;9.260;2022-12-17T12:05:51;-2.20;99.90
15357;DHT22;7778;48.792;9.260;2022-12-17T12:09:03;-2.10;99.90
15357;DHT22;7778;48.792;9.260;2022-12-17T12:12:18;-2.30;99.90
15357;DHT22;7778;48.792;9.260;2022-12-17T12:15:42;-2.40;99.90
15357;DHT22;7778;48.792;9.260;2022-12-17T12:18:58;-2.80;99.90
15357;DHT22;7778;48.792;9.260;2022-12-17T12:22:13;-2.70;99.90
15357;DHT22;7778;48.792;9.260;2022-12-17T12:25:25;-2.60;99.90
15357;DHT22;7778;48.792;9.260;2022-12-17T12:28:37;-2.50;99.90
15357;DHT22;7778;48.792;9.260;2022-12-17T12:31:52;-2.50;99.90
15357;DHT22;7778;48.792;9.260;2022-12-17T12:35:10;-2.60;99.90
15357;DHT22;7778;48.792;9.260;2022-12-17T12:38:20;-2.60;99.90
15357;DHT22;7778;48.792;9.260;2022-12-17T12:41:32;-2.50;99.90
15357;DHT22;7778;48.792;9.260;2022-12-17T12:44:47;-2.40;99.90
15357;DHT22;7778;48.792;9.260;2022-12-17T12:47:58;-2.50;99.90
15357;DHT22;7778;48.792;9.260;2022-12-17T12:51:12;-2.80;99.90
15357;DHT22;7778;48.792;9.260;2022-12-17T12:54:25;-2.70;99.90
15357;DHT22;7778;48.792;9.260;2022-12-17T12:57:32;-2.60;99.90
15357;DHT22;7778;48.792;9.260;2022-12-17T13:00:38;-2.50;99.90
15357;DHT22;7778;48.792;9.260;2022-12-17T13:03:55;-2.30;99.90
15357;DHT22;7778;48.792;9.260;2022-12-17T13:07:00;-2.30;99.90
15357;DHT22;7778;48.792;9.260;2022-12-17T13:09:48;-2.30;99.90
15357;DHT22;7778;48.792;9.260;2022-12-17T13:12:43;-2.40;99.90
15357;DHT22;7778;48.792;9.260;2022-12-17T13:15:35;-2.50;99.90
15357;DHT22;7778;48.792;9.260;2022-12-17T13:18:27;-2.60;99.90
15357;DHT22;7778;48.792;9.260;2022-12-17T13:21:26;-2.80;99.90
15357;DHT22;7778;48.792;9.260;2022-12-17T13:24:23;-3.00;99.90
15357;DHT22;7778;48.792;9.260;2022-12-17T13:27:27;-3.00;99.90
15357;DHT22;7778;48.792;9.260;2022-12-17T13:30:31;-3.20;99.90
15357;DHT22;7778;48.792;9.260;2022-12-17T13:33:25;-3.30;99.90
15357;DHT22;7778;48.792;9.260;2022-12-17T13:36:19;-3.60;99.90
15357;DHT22;7778;48.792;9.260;2022-12-17T13:39:29;-3.60;99.90
15357;DHT22;7778;48.792;9.260;2022-12-17T13:42:24;-3.40;99.90
15357;DHT22;7778;48.792;9.260;2022-12-17T13:45:14;-3.30;99.90
15357;DHT22;7778;48.792;9.260;2022-12-17T13:48:01;-3.50;99.90
15357;DHT22;7778;48.792;9.260;2022-12-17T13:50:53;-3.50;99.90
15357;DHT22;7778;48.792;9.260;2022-12-17T13:53:50;-3.70;99.90
15357;DHT22;7778;48.792;9.260;2022-12-17T13:56:37;-3.70;99.90
15357;DHT22;7778;48.792;9.260;2022-12-17T13:59:23;-3.70;99.90
15357;DHT22;7778;48.792;9.260;2022-12-17T14:02:22;-3.60;99.90
15357;DHT22;7778;48.792;9.260;2022-12-17T14:05:22;-4.00;99.90
15357;DHT22;7778;48.792;9.260;2022-12-17T14:08:12;-3.80;99.90
15357;DHT22;7778;48.792;9.260;2022-12-17T14:11:02;-3.90;99.90
15357;DHT22;7778;48.792;9.260;2022-12-17T14:14:11;-4.10;99.90
15357;DHT22;7778;48.792;9.260;2022-12-17T14:17:03;-4.30;99.90
15357;DHT22;7778;48.792;9.260;2022-12-17T14:19:53;-4.20;99.90
15357;DHT22;7778;48.792;9.260;2022-12-17T14:22:45;-4.00;99.90
15357;DHT22;7778;48.792;9.260;2022-12-17T14:25:35;-4.30;99.90
15357;DHT22;7778;48.792;9.260;2022-12-17T14:28:27;-4.30;99.90
15357;DHT22;7778;48.792;9.260;2022-12-17T14:31:18;-4.20;99.90
15357;DHT22;7778;48.792;9.260;2022-12-17T14:34:06;-4.30;99.90
15357;DHT22;7778;48.792;9.260;2022-12-17T14:36:56;-4.30;99.90
15357;DHT22;7778;48.792;9.260;2022-12-17T14:39:43;-4.30;99.90
15357;DHT22;7778;48.792;9.260;2022-12-17T14:42:34;-4.40;99.90
15357;DHT22;7778;48.792;9.260;2022-12-17T14:45:23;-4.60;99.90
15357;DHT22;7778;48.792;9.260;2022-12-17T14:48:14;-4.40;99.90
15357;DHT22;7778;48.792;9.260;2022-12-17T14:51:00;-4.20;99.90
15357;DHT22;7778;48.792;9.260;2022-12-17T14:53:46;-4.10;99.90
15357;DHT22;7778;48.792;9.260;2022-12-17T14:56:32;-4.10;99.90
15357;DHT22;7778;48.792;9.260;2022-12-17T14:59:29;-4.10;99.90
15357;DHT22;7778;48.792;9.260;2022-12-17T15:02:21;-4.20;99.90
15357;DHT22;7778;48.792;9.260;2022-12-17T15:05:13;-4.30;99.90
15357;DHT22;7778;48.792;9.260;2022-12-17T15:07:59;-4.40;99.90
15357;DHT22;7778;48.792;9.260;2022-12-17T15:10:45;-4.70;99.90
15357;DHT22;7778;48.792;9.260;2022-12-17T15:13:30;-4.90;99.90
15357;DHT22;7778;48.792;9.260;2022-12-17T15:16:16;-5.20;99.90
15357;DHT22;7778;48.792;9.260;2022-12-17T15:19:02;-5.40;99.90
15357;DHT22;7778;48.792;9.260;2022-12-17T15:21:48;-5.30;99.90
15357;DHT22;7778;48.792;9.260;2022-12-17T15:24:34;-5.40;99.90
15357;DHT22;7778;48.792;9.260;2022-12-17T15:27:19;-5.50;99.90
15357;DHT22;7778;48.792;9.260;2022-12-17T15:30:06;-5.40;99.90
15357;DHT22;7778;48.792;9.260;2022-12-17T15:32:54;-5.70;99.90
15357;DHT22;7778;48.792;9.260;2022-12-17T15:35:41;-5.80;99.90
15357;DHT22;7778;48.792;9.260;2022-12-17T15:38:26;-5.80;99.90
15357;DHT22;7778;48.792;9.260;2022-12-17T15:41:12;-5.90;99.90
15357;DHT22;7778;48.792;9.260;2022-12-17T15:44:15;-5.90;99.90
15357;DHT22;7778;48.792;9.260;2022-12-17T15:47:01;-5.80;99.90
15357;DHT22;7778;48.792;9.260;2022-12-17T15:49:46;-5.70;99.90
15357;DHT22;7778;48.792;9.260;2022-12-17T15:52:34;-5.90;99.90
15357;DHT22;7778;48.792;9.260;2022-12-17T15:55:20;-5.90;99.90
15357;DHT22;7778;48.792;9.260;2022-12-17T15:58:06;-5.80;99.90
15357;DHT22;7778;48.792;9.260;2022-12-17T16:00:54;-5.70;99.90
15357;DHT22;7778;48.792;9.260;2022-12-17T16:03:40;-5.60;99.90
15357;DHT22;7778;48.792;9.260;2022-12-17T16:06:26;-5.60;99.90
15357;DHT22;7778;48.792;9.260;2022-12-17T16:09:13;-5.80;99.90
15357;DHT22;7778;48.792;9.260;2022-12-17T16:11:59;-5.80;99.90
15357;DHT22;7778;48.792;9.260;2022-12-17T16:14:44;-5.80;99.90
15357;DHT22;7778;48.792;9.260;2022-12-17T16:17:30;-5.80;99.90
15357;DHT22;7778;48.792;9.260;2022-12-17T16:20:16;-5.90;99.90
15357;DHT22;7778;48.792;9.260;2022-12-17T16:23:02;-5.70;99.90
15357;DHT22;7778;48.792;9.260;2022-12-17T16:25:55;-5.60;99.90
15357;DHT22;7778;48.792;9.260;2022-12-17T16:28:42;-5.30;99.90
15357;DHT22;7778;48.792;9.260;2022-12-17T16:31:28;-5.40;99.90
15357;DHT22;7778;48.792;9.260;2022-12-17T16:34:14;-5.50;99.90
15357;DHT22;7778;48.792;9.260;2022-12-17T16:37:00;-5.80;99.90
15357;DHT22;7778;48.792;9.260;2022-12-17T16:39:45;-6.00;99.90
15357;DHT22;7778;48.792;9.260;2022-12-17T16:42:32;-6.30;99.90
15357;DHT22;7778;48.792;9.260;2022-12-17T16:45:18;-6.20;99.90
15357;DHT22;7778;48.792;9.260;2022-12-17T16:48:03;-5.90;99.90
15357;DHT22;7778;48.792;9.260;2022-12-17T16:50:50;-5.80;99.90
15357;DHT22;7778;48.792;9.260;2022-12-17T16:53:36;-5.90;99.90
15357;DHT22;7778;48.792;9.260;2022-12-17T16:56:25;-6.10;99.90
15357;DHT22;7778;48.792;9.260;2022-12-17T16:59:14;-6.00;99.90
15357;DHT22;7778;48.792;9.260;2022-12-17T17:02:00;-6.10;99.90
15357;DHT22;7778;48.792;9.260;2022-12-17T17:04:45;-6.10;99.90
15357;DHT22;7778;48.792;9.260;2022-12-17T17:07:31;-6.10;99.90
15357;DHT22;7778;48.792;9.260;2022-12-17T17:10:17;-6.50;99.90
15357;DHT22;7778;48.792;9.260;2022-12-17T17:13:02;-6.60;99.90
15357;DHT22;7778;48.792;9.260;2022-12-17T17:15:50;-6.60;99.90
15357;DHT22;7778;48.792;9.260;2022-12-17T17:18:36;-6.60;99.90
15357;DHT22;7778;48.792;9.260;2022-12-17T17:21:25;-6.70;99.90
15357;DHT22;7778;48.792;9.260;2022-12-17T17:24:14;-6.60;99.90
15357;DHT22;7778;48.792;9.260;2022-12-17T17:27:01;-6.80;99.90
15357;DHT22;7778;48.792;9.260;2022-12-17T17:29:46;-6.90;99.90
15357;DHT22;7778;48.792;9.260;2022-12-17T17:32:33;-6.90;99.90
15357;DHT22;7778;48.792;9.260;2022-12-17T17:35:19;-6.60;99.90
15357;DHT22;7778;48.792;9.260;2022-12-17T17:38:04;-6.50;99.90
15357;DHT22;7778;48.792;9.260;2022-12-17T17:40:55;-6.40;99.90
15357;DHT22;7778;48.792;9.260;2022-12-17T17:43:41;-6.20;99.90
15357;DHT22;7778;48.792;9.260;2022-12-17T17:46:28;-6.30;99.90
15357;DHT22;7778;48.792;9.260;2022-12-17T17:49:16;-6.30;99.90
15357;DHT22;7778;48.792;9.260;2022-12-17T17:52:02;-6.30;99.90
15357;DHT22;7778;48.792;9.260;2022-12-17T17:54:47;-6.20;99.90
15357;DHT22;7778;48.792;9.260;2022-12-17T17:57:33;-6.20;99.90
15357;DHT22;7778;48.792;9.260;2022-12-17T18:00:19;-6.30;99.90
15357;DHT22;7778;48.792;9.260;2022-12-17T18:03:05;-6.20;99.90
15357;DHT22;7778;48.792;9.260;2022-12-17T18:05:51;-6.20;99.90
15357;DHT22;7778;48.792;9.260;2022-12-17T18:08:37;-6.20;99.90
15357;DHT22;7778;48.792;9.260;2022-12-17T18:11:26;-6.20;99.90
15357;DHT22;7778;48.792;9.260;2022-12-17T18:14:13;-6.30;99.90
15357;DHT22;7778;48.792;9.260;2022-12-17T18:16:58;-6.30;99.90
15357;DHT22;7778;48.792;9.260;2022-12-17T18:19:43;-6.20;99.90
15357;DHT22;7778;48.792;9.260;2022-12-17T18:22:33;-6.30;99.90
15357;DHT22;7778;48.792;9.260;2022-12-17T18:25:19;-6.30;99.90
15357;DHT22;7778;48.792;9.260;2022-12-17T18:28:04;-6.20;99.90
15357;DHT22;7778;48.792;9.260;2022-12-17T18:30:50;-6.30;99.90
15357;DHT22;7778;48.792;9.260;2022-12-17T18:33:38;-6.40;99.90
15357;DHT22;7778;48.792;9.260;2022-12-17T18:36:27;-6.40;99.90
15357;DHT22;7778;48.792;9.260;2022-12-17T18:39:18;-6.30;99.90
15357;DHT22;7778;48.792;9.260;2022-12-17T18:42:05;-5.90;99.90
15357;DHT22;7778;48.792;9.260;2022-12-17T18:45:08;-6.00;99.90
15357;DHT22;7778;48.792;9.260;2022-12-17T18:47:57;-6.30;99.90
15357;DHT22;7778;48.792;9.260;2022-12-17T18:50:43;-6.40;99.90
15357;DHT22;7778;48.792;9.260;2022-12-17T18:53:28;-6.50;99.90
15357;DHT22;7778;48.792;9.260;2022-12-17T18:56:16;-6.60;99.90
15357;DHT22;7778;48.792;9.260;2022-12-17T18:59:02;-6.60;99.90
15357;DHT22;7778;48.792;9.260;2022-12-17T19:01:48;-6.70;99.90
15357;DHT22;7778;48.792;9.260;2022-12-17T19:04:34;-6.90;99.90
15357;DHT22;7778;48.792;9.260;2022-12-17T19:07:20;-6.50;99.90
15357;DHT22;7778;48.792;9.260;2022-12-17T19:10:06;-6.40;99.90
15357;DHT22;7778;48.792;9.260;2022-12-17T19:12:53;-6.50;99.90
15357;DHT22;7778;48.792;9.260;2022-12-17T19:15:39;-6.50;99.90